.
WxDataArchive / Data Records for 2006-10-27
2006-10-26 October 2006 2006-10-28

Data Records for Friday, 27 October 2006

Time	Temp	Chill	HIndex	Humid	Dewpt	 Wind 	HiWind	WindDir	Rain 	Barom 
-----	----	-----	------	-----	-----	------	------	-------	-----	----- 
00:00	39.6	39.6	39.6	96	38.6	3	5	90	0.00	30.006 
00:05	39.6	39.6	39.6	96	38.6	2	6	90	0.00	30.006 
00:10	39.6	39.6	39.6	96	38.6	2	3	112	0.00	30.006 
00:15	39.6	39.6	39.6	96	38.6	2	5	90	0.00	30.000 
00:20	39.5	39.5	39.5	96	38.5	3	6	90	0.00	30.000 
00:25	39.5	39.5	39.5	96	38.5	2	6	90	0.00	30.000 
00:30	39.5	39.5	39.5	96	38.5	3	6	90	0.00	29.997 
00:35	39.5	39.5	39.5	96	38.5	3	6	90	0.00	29.997 
00:40	39.5	39.5	39.5	96	38.5	3	6	90	0.00	29.997 
00:45	39.5	39.5	39.5	96	38.5	3	7	90	0.00	29.990 
00:50	39.5	39.5	39.5	96	38.5	2	7	90	0.00	29.990 
00:55	39.5	39.5	39.5	96	38.5	3	9	90	0.00	29.990 
01:00	39.5	39.5	39.5	96	38.5	2	5	90	0.00	29.987 
01:05	39.5	39.5	39.5	96	38.5	2	6	90	0.00	29.987 
01:10	39.5	39.5	39.5	96	38.5	2	4	90	0.00	29.987 
01:15	39.5	39.5	39.5	96	38.5	3	7	90	0.01	29.977 
01:20	39.5	39.5	39.5	96	38.5	3	6	90	0.00	29.977 
01:25	39.5	39.5	39.5	96	38.5	2	5	90	0.00	29.977 
01:30	39.5	39.5	39.5	96	38.5	3	7	90	0.00	29.967 
01:35	39.6	39.6	39.6	96	38.6	2	3	90	0.00	29.967 
01:40	39.6	39.6	39.6	96	38.6	3	6	90	0.00	29.967 
01:45	39.6	39.6	39.6	96	38.6	2	5	90	0.00	29.964 
01:50	39.6	39.6	39.6	96	38.6	3	7	90	0.00	29.964 
01:55	39.6	39.6	39.6	96	38.6	3	6	90	0.00	29.964 
02:00	39.6	39.6	39.6	96	38.6	3	6	90	0.00	29.949 
02:05	39.6	39.6	39.6	96	38.6	2	5	90	0.00	29.949 
02:10	39.6	39.6	39.6	96	38.6	2	6	90	0.00	29.949 
02:15	39.6	39.6	39.6	96	38.6	2	5	90	0.00	29.952 
02:20	39.6	39.6	39.6	96	38.6	2	6	90	0.00	29.952 
02:25	39.6	39.6	39.6	96	38.6	2	4	90	0.00	29.952 
02:30	39.6	39.6	39.6	96	38.6	3	5	90	0.00	29.950 
02:35	39.6	39.6	39.6	96	38.6	3	8	90	0.00	29.950 
02:40	39.6	39.6	39.6	96	38.6	3	9	90	0.00	29.950 
02:45	39.8	39.8	39.8	96	38.8	3	5	90	0.00	29.950 
02:50	39.8	39.8	39.8	96	38.8	2	5	112	0.00	29.950 
02:55	39.8	39.8	39.8	96	38.8	2	4	90	0.00	29.950 
03:00	39.8	39.8	39.8	96	38.8	1	3	90	0.00	29.949 
03:05	39.8	39.8	39.8	96	38.8	3	5	90	0.00	29.949 
03:10	39.9	39.9	39.9	96	38.9	2	4	112	0.00	29.949 
03:15	39.9	39.9	39.9	96	38.9	2	5	90	0.00	29.940 
03:20	39.9	39.9	39.9	96	38.9	2	4	90	0.01	29.940 
03:25	39.9	39.9	39.9	96	38.9	2	6	90	0.00	29.940 
03:30	39.9	39.9	39.9	96	38.9	2	3	90	0.00	29.936 
03:35	39.9	39.9	39.9	96	38.9	2	5	90	0.00	29.936 
03:40	39.9	39.9	39.9	96	38.9	2	5	90	0.00	29.936 
03:45	39.9	39.9	39.9	96	38.9	2	4	90	0.00	29.925 
03:50	39.9	39.9	39.9	96	38.9	2	6	90	0.00	29.925 
03:55	39.9	39.9	39.9	96	38.9	3	8	90	0.00	29.925 
04:00	39.9	39.9	39.9	96	38.9	2	7	90	0.00	29.910 
04:05	39.9	39.9	39.9	96	38.9	2	6	90	0.00	29.910 
04:10	39.9	39.9	39.9	96	38.9	2	6	90	0.00	29.910 
04:15	39.9	39.9	39.9	96	38.9	2	4	90	0.00	29.901 
04:20	39.9	39.9	39.9	96	38.9	2	6	90	0.00	29.901 
04:25	39.9	39.9	39.9	96	38.9	2	5	90	0.00	29.901 
04:30	39.9	39.9	39.9	97	39.1	2	5	90	0.00	29.890 
04:35	39.9	39.9	39.9	96	38.9	2	5	90	0.00	29.890 
04:40	39.9	39.9	39.9	96	38.9	2	5	90	0.00	29.890 
04:45	39.9	39.9	39.9	96	38.9	2	6	90	0.00	29.885 
04:50	39.9	39.9	39.9	96	38.9	3	6	90	0.00	29.885 
04:55	39.9	39.9	39.9	97	39.1	2	7	90	0.00	29.885 
05:00	39.9	39.9	39.9	96	38.9	2	5	90	0.00	29.893 
05:05	40.1	40.1	40.1	97	39.3	2	4	90	0.00	29.893 
05:10	40.1	40.1	40.1	96	39.1	1	3	90	0.00	29.893 
05:15	40.1	40.1	40.1	96	39.1	1	3	90	0.00	29.895 
05:20	40.1	40.1	40.1	96	39.1	2	5	90	0.00	29.895 
05:25	40.1	40.1	40.1	97	39.3	2	5	90	0.00	29.895 
05:30	40.2	40.2	40.2	96	39.2	1	4	90	0.00	29.897 
05:35	40.2	40.2	40.2	97	39.4	1	4	90	0.00	29.897 
05:40	40.2	40.2	40.2	97	39.4	1	5	112	0.00	29.897 
05:45	40.2	40.2	40.2	97	39.4	1	3	90	0.00	29.892 
05:50	40.2	40.2	40.2	96	39.2	1	4	90	0.00	29.892 
05:55	40.2	40.2	40.2	96	39.2	2	5	90	0.00	29.892 
06:00	40.2	40.2	40.2	97	39.4	2	4	90	0.00	29.888 
06:05	40.2	40.2	40.2	97	39.4	2	4	112	0.00	29.888 
06:10	40.2	40.2	40.2	97	39.4	3	7	90	0.00	29.888 
06:15	40.2	40.2	40.2	97	39.4	1	4	90	0.00	29.886 
06:20	40.2	40.2	40.2	97	39.4	2	5	112	0.00	29.886 
06:25	40.2	40.2	40.2	97	39.4	1	4	90	0.00	29.886 
06:30	40.3	40.3	40.3	97	39.5	2	4	90	0.00	29.889 
06:35	40.3	40.3	40.3	97	39.5	2	4	90	0.00	29.889 
06:40	40.3	40.3	40.3	97	39.5	2	5	90	0.00	29.889 
06:45	40.2	40.2	40.2	97	39.4	2	7	90	0.00	29.887 
06:50	40.3	40.3	40.3	97	39.5	2	4	90	0.00	29.887 
06:55	40.3	40.3	40.3	97	39.5	2	4	90	0.00	29.887 
07:00	40.3	40.3	40.3	97	39.5	2	4	90	0.00	29.879 
07:05	40.3	40.3	40.3	97	39.5	2	4	90	0.00	29.879 
07:10	40.3	40.3	40.3	97	39.5	2	5	90	0.00	29.879 
07:15	40.3	40.3	40.3	97	39.5	2	5	90	0.00	29.869 
07:20	40.3	40.3	40.3	97	39.5	2	5	90	0.00	29.869 
07:25	40.3	40.3	40.3	97	39.5	2	6	90	0.00	29.869 
07:30	40.3	40.3	40.3	97	39.5	2	5	90	0.00	29.862 
07:35	40.3	40.3	40.3	97	39.5	2	7	90	0.00	29.862 
07:40	40.3	40.3	40.3	97	39.5	2	6	90	0.00	29.862 
07:45	40.3	40.3	40.3	97	39.5	2	4	112	0.00	29.852 
07:50	40.3	40.3	40.3	97	39.5	3	9	90	0.00	29.852 
07:55	40.3	40.3	40.3	97	39.5	2	8	112	0.00	29.852 
08:00	40.3	40.3	40.3	97	39.5	3	7	90	0.00	29.853 
08:05	40.5	40.5	40.5	97	39.7	2	5	90	0.00	29.853 
08:10	40.5	40.5	40.5	97	39.7	2	4	90	0.00	29.853 
08:15	40.5	40.5	40.5	97	39.7	1	3	90	0.00	29.846 
08:20	40.5	40.5	40.5	97	39.7	2	5	90	0.00	29.846 
08:25	40.5	40.5	40.5	97	39.7	3	7	90	0.00	29.846 
08:30	40.6	40.6	40.6	97	39.8	2	4	90	0.00	29.853 
08:35	40.6	40.6	40.6	97	39.8	2	5	90	0.00	29.853 
08:40	40.6	40.6	40.6	97	39.8	2	5	90	0.00	29.853 
08:45	40.6	40.6	40.6	97	39.8	3	7	90	0.00	29.843 
08:50	40.6	40.6	40.6	97	39.8	3	11	90	0.00	29.843 
08:55	40.6	40.6	40.6	97	39.8	3	10	90	0.00	29.843 
09:00	40.8	40.8	40.8	97	40.0	3	7	90	0.00	29.837 
09:05	40.8	40.8	40.8	97	40.0	3	7	90	0.00	29.837 
09:10	40.8	40.8	40.8	97	40.0	3	6	90	0.00	29.837 
09:15	40.8	40.8	40.8	97	40.0	3	9	90	0.00	29.824 
09:20	40.8	40.8	40.8	97	40.0	2	7	90	0.00	29.824 
09:25	40.9	40.9	40.9	97	40.1	1	4	90	0.00	29.824 
09:30	40.9	40.9	40.9	97	40.1	2	7	90	0.00	29.826 
09:35	40.9	40.9	40.9	97	40.1	2	5	90	0.00	29.826 
09:40	40.9	40.9	40.9	97	40.1	3	9	90	0.00	29.826 
09:45	41.1	41.1	41.1	97	40.3	2	7	90	0.00	29.825 
09:50	41.1	41.1	41.1	97	40.3	1	2	90	0.01	29.825 
09:55	41.1	41.1	41.1	97	40.3	2	4	90	0.00	29.825 
10:00	41.2	41.2	41.2	97	40.4	1	4	90	0.00	29.837 
10:05	41.2	41.2	41.2	97	40.4	2	6	90	0.00	29.837 
10:10	41.2	41.2	41.2	97	40.4	1	5	112	0.00	29.837 
10:15	41.2	41.2	41.2	97	40.4	1	3	112	0.00	29.828 
10:20	41.3	41.3	41.3	97	40.5	1	4	112	0.00	29.828 
10:25	41.3	41.3	41.3	97	40.5	1	6	90	0.00	29.828 
10:30	41.3	41.3	41.3	97	40.5	2	6	112	0.00	29.818 
10:35	41.3	41.3	41.3	97	40.5	2	7	112	0.00	29.818 
10:40	41.5	41.5	41.5	97	40.7	1	5	112	0.00	29.818 
10:45	41.5	41.5	41.5	97	40.7	2	4	90	0.00	29.807 
10:50	41.6	41.6	41.6	97	40.8	1	4	90	0.00	29.807 
10:55	41.6	41.6	41.6	97	40.8	2	6	112	0.00	29.807 
11:00	41.6	41.6	41.6	97	40.8	2	4	90	0.00	29.798 
11:05	41.6	41.6	41.6	97	40.8	3	6	90	0.00	29.798 
11:10	41.6	41.6	41.6	97	40.8	2	5	90	0.00	29.798 
11:15	41.6	41.6	41.6	97	40.8	3	7	90	0.00	29.795 
11:20	41.8	41.8	41.8	97	41.0	1	4	112	0.00	29.795 
11:25	41.8	41.8	41.8	97	41.0	2	5	112	0.00	29.795 
11:30	41.8	41.8	41.8	97	41.0	2	5	112	0.00	29.789 
11:35	41.8	41.8	41.8	97	41.0	1	3	90	0.00	29.789 
11:40	41.8	41.8	41.8	97	41.0	2	6	90	0.00	29.789 
11:45	41.9	41.9	41.9	97	41.1	3	7	112	0.00	29.780 
11:50	41.9	41.9	41.9	97	41.1	1	4	112	0.00	29.780 
11:55	41.9	41.9	41.9	97	41.1	2	6	112	0.00	29.780 
12:00	42.1	42.1	42.1	97	41.3	2	5	112	0.00	29.774 
12:05	42.1	42.1	42.1	97	41.3	2	6	112	0.00	29.774 
12:10	42.1	42.1	42.1	97	41.3	1	4	112	0.00	29.774 
12:15	42.1	42.1	42.1	97	41.3	2	5	112	0.00	29.771 
12:20	42.1	42.1	42.1	97	41.3	2	7	90	0.00	29.771 
12:25	42.1	42.1	42.1	97	41.3	1	4	90	0.01	29.771 
12:30	42.2	42.2	42.2	97	41.4	1	5	68	0.00	29.760 
12:35	42.2	42.2	42.2	97	41.4	2	6	112	0.00	29.760 
12:40	42.2	42.2	42.2	97	41.4	2	5	90	0.00	29.760 
12:45	42.2	42.2	42.2	97	41.4	2	5	90	0.00	29.745 
12:50	42.2	42.2	42.2	97	41.4	2	6	90	0.00	29.745 
12:55	42.2	42.2	42.2	97	41.4	2	4	112	0.01	29.745 
13:00	42.2	42.2	42.2	97	41.4	2	6	90	0.00	29.730 
13:05	42.2	42.2	42.2	97	41.4	2	5	90	0.01	29.730 
13:10	42.2	42.2	42.2	97	41.4	2	5	90	0.00	29.730 
13:15	42.2	42.2	42.2	97	41.4	2	7	112	0.01	29.718 
13:20	42.3	42.3	42.3	97	41.5	1	3	90	0.00	29.718 
13:25	42.3	42.3	42.3	97	41.5	1	5	90	0.01	29.718 
13:30	42.3	42.3	42.3	97	41.5	2	4	112	0.01	29.711 
13:35	42.3	42.3	42.3	97	41.5	1	5	68	0.01	29.711 
13:40	42.3	42.3	42.3	97	41.5	2	4	112	0.01	29.711 
13:45	42.5	42.5	42.5	97	41.7	1	5	112	0.00	29.703 
13:50	42.5	42.5	42.5	97	41.7	1	6	112	0.00	29.703 
13:55	42.5	42.5	42.5	97	41.7	1	4	112	0.01	29.703 
14:00	42.6	42.6	42.6	97	41.8	1	3	68	0.00	29.697 
14:05	42.6	42.6	42.6	97	41.8	1	4	112	0.03	29.697 
14:10	42.6	42.6	42.6	97	41.8	1	4	112	0.02	29.697 
14:15	42.6	42.6	42.6	96	41.5	1	4	45	0.04	29.683 
14:20	42.5	42.5	42.5	96	41.4	2	5	68	0.02	29.683 
14:25	42.6	42.6	42.6	96	41.5	1	4	112	0.02	29.683 
14:30	42.6	42.6	42.6	96	41.5	1	3	90	0.01	29.679 
14:35	42.6	42.6	42.6	96	41.5	1	4	68	0.02	29.679 
14:40	42.6	42.6	42.6	97	41.8	1	5	68	0.02	29.679 
14:45	42.6	42.6	42.6	96	41.5	2	5	90	0.01	29.666 
14:50	42.6	42.6	42.6	96	41.5	1	6	90	0.01	29.666 
14:55	42.6	42.6	42.6	96	41.5	1	5	90	0.02	29.666 
15:00	42.5	42.5	42.5	96	41.4	1	4	112	0.01	29.651 
15:05	42.5	42.5	42.5	96	41.4	2	4	90	0.01	29.651 
15:10	42.5	42.5	42.5	96	41.4	2	4	90	0.01	29.651 
15:15	42.5	42.5	42.5	96	41.4	2	5	90	0.01	29.635 
15:20	42.5	42.5	42.5	96	41.4	2	4	90	0.00	29.635 
15:25	42.5	42.5	42.5	96	41.4	2	5	90	0.01	29.635 
15:30	42.5	42.5	42.5	96	41.4	1	4	90	0.00	29.631 
15:35	42.5	42.5	42.5	96	41.4	2	4	90	0.01	29.631 
15:40	42.3	42.3	42.3	96	41.2	1	4	68	0.00	29.631 
15:45	42.3	42.3	42.3	96	41.2	1	3	68	0.01	29.628 
15:50	42.3	42.3	42.3	96	41.2	1	3	68	0.01	29.628 
15:55	42.3	42.3	42.3	96	41.2	1	3	112	0.01	29.628 
16:00	42.3	42.3	42.3	96	41.2	1	4	90	0.01	29.619 
16:05	42.5	42.5	42.5	96	41.4	1	3	90	0.01	29.619 
16:10	42.5	42.5	42.5	96	41.4	1	3	90	0.01	29.619 
16:15	42.5	42.5	42.5	96	41.4	1	5	112	0.01	29.617 
16:20	42.5	42.5	42.5	96	41.4	1	3	90	0.01	29.617 
16:25	42.5	42.5	42.5	96	41.4	1	3	45	0.01	29.617 
16:30	42.3	42.3	42.3	96	41.2	1	4	45	0.01	29.617 
16:35	42.3	42.3	42.3	96	41.2	2	5	90	0.03	29.617 
16:40	42.3	42.3	42.3	96	41.2	2	5	90	0.02	29.617 
16:45	42.3	42.3	42.3	96	41.2	1	3	90	0.01	29.610 
16:50	42.3	42.3	42.3	96	41.2	1	4	90	0.02	29.610 
16:55	42.3	42.3	42.3	96	41.2	2	4	68	0.01	29.610 
17:00	42.5	42.5	42.5	96	41.4	1	3	112	0.01	29.602 
17:05	42.5	42.5	42.5	96	41.4	2	6	112	0.00	29.602 
17:10	42.5	42.5	42.5	96	41.4	1	5	45	0.01	29.602 
17:15	42.6	42.6	42.6	96	41.5	1	5	68	0.01	29.591 
17:20	42.6	42.6	42.6	96	41.5	1	5	90	0.01	29.591 
17:25	42.6	42.6	42.6	96	41.5	1	4	68	0.00	29.591 
17:30	42.8	42.8	42.8	96	41.7	0	1	68	0.00	29.592 
17:35	42.8	42.8	42.8	96	41.7	0	2	68	0.01	29.592 
17:40	42.8	42.8	42.8	96	41.7	1	3	90	0.00	29.592 
17:45	42.8	42.8	42.8	96	41.7	1	3	90	0.01	29.593 
17:50	42.8	42.8	42.8	96	41.7	1	3	90	0.01	29.593 
17:55	42.8	42.8	42.8	96	41.7	1	3	90	0.00	29.593 
18:00	42.9	42.9	42.9	96	41.8	1	3	112	0.02	29.598 
18:05	42.9	42.9	42.9	96	41.8	1	3	90	0.01	29.598 
18:10	42.9	42.9	42.9	96	41.8	1	3	90	0.01	29.598 
18:15	42.9	42.9	42.9	96	41.8	1	3	90	0.02	29.587 
18:20	43.1	43.1	43.1	96	42.0	0	2	90	0.00	29.587 
18:25	43.1	43.1	43.1	96	42.0	0	2	90	0.01	29.587 
18:30	43.1	43.1	43.1	96	42.0	0	3	0	0.01	29.573 
18:35	43.1	43.1	43.1	96	42.0	1	4	90	0.01	29.573 
18:40	43.2	43.2	43.2	97	42.4	1	3	112	0.01	29.573 
18:45	43.2	43.2	43.2	97	42.4	1	3	112	0.00	29.571 
18:50	43.2	43.2	43.2	97	42.4	0	1	112	0.01	29.571 
18:55	43.2	43.2	43.2	97	42.4	1	3	112	0.00	29.571 
19:00	43.3	43.3	43.3	97	42.5	1	3	90	0.01	29.569 
19:05	43.3	43.3	43.3	97	42.5	1	4	68	0.01	29.569 
19:10	43.3	43.3	43.3	97	42.5	1	2	90	0.00	29.569 
19:15	43.3	43.3	43.3	97	42.5	1	2	90	0.01	29.564 
19:20	43.3	43.3	43.3	97	42.5	1	3	90	0.01	29.564 
19:25	43.3	43.3	43.3	97	42.5	1	4	45	0.00	29.564 
19:30	43.5	43.5	43.5	97	42.7	0	3	90	0.01	29.573 
19:35	43.3	43.3	43.3	96	42.2	0	1	68	0.01	29.573 
19:40	43.3	43.3	43.3	97	42.5	0	3	135	0.00	29.573 
19:45	43.3	43.3	43.3	96	42.2	0	5	90	0.01	29.571 
19:50	43.2	43.2	43.2	96	42.1	0	2	338	0.00	29.571 
19:55	43.1	43.1	43.1	96	42.0	1	3	112	0.01	29.571 
20:00	43.1	43.1	43.1	96	42.0	1	4	112	0.01	29.570 
20:05	42.9	42.9	42.9	96	41.8	1	3	45	0.00	29.570 
20:10	42.9	42.9	42.9	96	41.8	1	4	90	0.01	29.570 
20:15	42.8	42.8	42.8	96	41.7	1	5	112	0.00	29.563 
20:20	42.8	42.8	42.8	96	41.7	0	2	0	0.01	29.563 
20:25	42.8	42.8	42.8	96	41.7	0	2	0	0.00	29.563 
20:30	42.8	42.8	42.8	96	41.7	0	3	135	0.01	29.566 
20:35	42.6	42.6	42.6	96	41.5	0	3	225	0.00	29.566 
20:40	42.6	42.6	42.6	96	41.5	0	3	45	0.00	29.566 
20:45	42.6	42.6	42.6	96	41.5	0	2	0	0.00	29.553 
20:50	42.5	42.5	42.5	96	41.4	0	2	0	0.01	29.553 
20:55	42.3	42.3	42.3	96	41.2	0	3	338	0.00	29.553 
21:00	42.2	42.2	42.2	96	41.1	1	3	338	0.00	29.540 
21:05	42.2	42.2	42.2	96	41.1	1	3	68	0.00	29.540 
21:10	42.2	42.2	42.2	96	41.1	0	4	90	0.01	29.540 
21:15	42.1	42.1	42.1	96	41.0	1	2	68	0.01	29.532 
21:20	42.1	42.1	42.1	96	41.0	1	4	338	0.00	29.532 
21:25	41.9	41.9	41.9	96	40.8	0	1	0	0.01	29.532 
21:30	41.9	41.9	41.9	96	40.8	1	3	0	0.00	29.522 
21:35	41.9	41.9	41.9	96	40.8	0	2	0	0.00	29.522 
21:40	41.8	41.8	41.8	96	40.7	1	3	315	0.00	29.522 
21:45	41.8	41.8	41.8	96	40.7	1	3	315	0.00	29.518 
21:50	41.6	41.6	41.6	96	40.5	1	3	315	0.00	29.518 
21:55	41.6	41.6	41.6	95	40.3	1	2	315	0.00	29.518 
22:00	41.6	41.6	41.6	95	40.3	1	5	45	0.00	29.513 
22:05	41.6	41.6	41.6	95	40.3	0	3	45	0.00	29.513 
22:10	41.6	41.6	41.6	95	40.3	1	5	292	0.00	29.513 
22:15	41.6	41.6	41.6	95	40.3	0	3	112	0.00	29.507 
22:20	41.6	41.6	41.6	95	40.3	0	2	135	0.00	29.507 
22:25	41.6	41.6	41.6	95	40.3	0	2	22	0.00	29.507 
22:30	41.5	41.5	41.5	95	40.2	1	3	315	0.00	29.509 
22:35	41.5	41.5	41.5	95	40.2	0	3	338	0.00	29.509 
22:40	41.5	41.5	41.5	95	40.2	0	2	315	0.00	29.509 
22:45	41.5	41.5	41.5	95	40.2	0	2	315	0.00	29.515 
22:50	41.5	41.5	41.5	95	40.2	1	3	315	0.00	29.515 
22:55	41.5	41.5	41.5	95	40.2	0	2	315	0.00	29.515 
23:00	41.5	41.5	41.5	95	40.2	1	3	315	0.00	29.514 
23:05	41.3	41.3	41.3	95	40.0	0	2	315	0.00	29.514 
23:10	41.3	41.3	41.3	95	40.0	1	6	0	0.00	29.514 
23:15	41.3	41.3	41.3	94	39.7	0	2	0	0.00	29.519 
23:20	41.3	41.3	41.3	94	39.7	0	1	338	0.00	29.519 
23:25	41.2	41.2	41.2	94	39.6	0	2	338	0.00	29.519 
23:30	41.2	41.2	41.2	94	39.6	1	3	338	0.00	29.519 
23:35	41.2	41.2	41.2	94	39.6	1	2	338	0.00	29.519 
23:40	41.2	41.2	41.2	94	39.6	1	3	338	0.00	29.519 
23:45	41.2	41.2	41.2	94	39.6	1	4	315	0.00	29.516 
23:50	41.1	41.1	41.1	94	39.5	1	2	0	0.00	29.516 
23:55	41.1	41.1	41.1	94	39.5	1	5	338	0.00	29.516 

CoCoRaHS
IN-AL-39
A2 Web Hosting
Creative Commons License
GoDaddy
Look for:

loaded 2017-10-20 19:55:40 • last modified 2010-11-18 10:43:29
Privacy PolicyDisclaimer
• wx.awcolley.com is powered by PmWiki v.2002016 •
• all content (unless otherwise noted) © 2017 A W Colley